Station Historical Data
Daily Summary for May 24, 2017 Units:  Both    English   Metric
« Previous Day
Next Day »
Daily Weekly Monthly Yearly Custom
  High: Low: Average:
Temperature: 79.2 °F /  26.2 °C 56.5 °F /  13.6 °C 67.6 °F /  19.8 °C
Dew Point: 53.3 °F /  11.8 °C 42.2 °F /  5.7 °C 48.3 °F /  9.1 °C
Humidity: 78% 30% 53%
Wind Speed: 11.0mph /  17.7km/h - 2.8mph /  4.5km/h
Wind Gust: 16.0mph /  25.7km/h - -
Wind- - ESE
Pressure: 29.73 in /  1006.7 hPa 29.57 in /  1001.2 hPa -
Precipitation: 0.00 in /  0 mm    
Historical Graphs
 
 
Tabular Data for May 24, 2017
Time Temperature Dew Point Pressure Wind Wind Speed Wind Gust Humidity Rainfall Rate (Hourly)
00:00 62.4 °F /  16.9 °C 50.9 °F /  10.5 °C 29.73in /  1006.7hPa ENE 1.0mph /  1.6km/h 8.0mph /  12.9km/h 66% 0.00in /  0mm
00:05 62.2 °F /  16.8 °C 50.7 °F /  10.4 °C 29.73in /  1006.7hPa East 3.0mph /  4.8km/h 8.0mph /  12.9km/h 66% 0.00in /  0mm
00:10 61.9 °F /  16.6 °C 50.8 °F /  10.4 °C 29.73in /  1006.7hPa ENE 1.0mph /  1.6km/h 6.0mph /  9.7km/h 67% 0.00in /  0mm
00:15 61.8 °F /  16.6 °C 50.3 °F /  10.2 °C 29.73in /  1006.7hPa ENE 2.0mph /  3.2km/h 8.0mph /  12.9km/h 66% 0.00in /  0mm
00:20 61.7 °F /  16.5 °C 50.6 °F /  10.3 °C 29.73in /  1006.7hPa East 2.0mph /  3.2km/h 8.0mph /  12.9km/h 67% 0.00in /  0mm
00:25 61.6 °F /  16.4 °C 50.5 °F /  10.3 °C 29.73in /  1006.7hPa East 2.0mph /  3.2km/h 6.0mph /  9.7km/h 67% 0.00in /  0mm
00:30 61.3 °F /  16.3 °C 50.6 °F /  10.3 °C 29.73in /  1006.7hPa East 2.0mph /  3.2km/h 3.0mph /  4.8km/h 68% 0.00in /  0mm
00:35 61.0 °F /  16.1 °C 50.4 °F /  10.2 °C 29.72in /  1006.3hPa East 1.0mph /  1.6km/h 3.0mph /  4.8km/h 68% 0.00in /  0mm
00:40 60.9 °F /  16.1 °C 50.3 °F /  10.2 °C 29.72in /  1006.3hPa East 2.0mph /  3.2km/h 5.0mph /  8km/h 68% 0.00in /  0mm
00:45 60.8 °F /  16 °C 50.2 °F /  10.1 °C 29.72in /  1006.3hPa ENE 2.0mph /  3.2km/h 6.0mph /  9.7km/h 68% 0.00in /  0mm
00:50 60.8 °F /  16 °C 49.8 °F /  9.9 °C 29.72in /  1006.3hPa ENE 2.0mph /  3.2km/h 5.0mph /  8km/h 67% 0.00in /  0mm
00:55 60.9 °F /  16.1 °C 49.9 °F /  9.9 °C 29.72in /  1006.3hPa ENE 1.0mph /  1.6km/h 6.0mph /  9.7km/h 67% 0.00in /  0mm
01:00 60.9 °F /  16.1 °C 49.9 °F /  9.9 °C 29.72in /  1006.3hPa ENE 4.0mph /  6.4km/h 8.0mph /  12.9km/h 67% 0.00in /  0mm
01:05 60.8 °F /  16 °C 49.8 °F /  9.9 °C 29.72in /  1006.3hPa East 2.0mph /  3.2km/h 8.0mph /  12.9km/h 67% 0.00in /  0mm
01:10 60.8 °F /  16 °C 49.8 °F /  9.9 °C 29.72in /  1006.3hPa East 2.0mph /  3.2km/h 6.0mph /  9.7km/h 67% 0.00in /  0mm
01:15 60.7 °F /  15.9 °C 49.7 °F /  9.8 °C 29.72in /  1006.3hPa East 1.0mph /  1.6km/h 3.0mph /  4.8km/h 67% 0.00in /  0mm
01:20 60.7 °F /  15.9 °C 49.7 °F /  9.8 °C 29.72in /  1006.3hPa East 1.0mph /  1.6km/h 5.0mph /  8km/h 67% 0.00in /  0mm
01:25 60.6 °F /  15.9 °C 49.6 °F /  9.8 °C 29.72in /  1006.3hPa ENE 3.0mph /  4.8km/h 3.0mph /  4.8km/h 67% 0.00in /  0mm
01:30 60.7 °F /  15.9 °C 49.7 °F /  9.8 °C 29.71in /  1006hPa East 2.0mph /  3.2km/h 5.0mph /  8km/h 67% 0.00in /  0mm
01:35 60.6 °F /  15.9 °C 49.6 °F /  9.8 °C 29.71in /  1006hPa East 2.0mph /  3.2km/h 5.0mph /  8km/h 67% 0.00in /  0mm
01:40 60.4 °F /  15.8 °C 49.8 °F /  9.9 °C 29.71in /  1006hPa East 2.0mph /  3.2km/h 4.0mph /  6.4km/h 68% 0.00in /  0mm
01:45 60.3 °F /  15.7 °C 49.7 °F /  9.8 °C 29.71in /  1006hPa ENE 1.0mph /  1.6km/h 3.0mph /  4.8km/h 68% 0.00in /  0mm
01:50 60.1 °F /  15.6 °C 49.5 °F /  9.7 °C 29.71in /  1006hPa ENE 1.0mph /  1.6km/h 3.0mph /  4.8km/h 68% 0.00in /  0mm
01:55 60.0 °F /  15.6 °C 49.4 °F /  9.7 °C 29.70in /  1005.6hPa Calm   2.0mph /  3.2km/h 68% 0.00in /  0mm
02:00 59.8 °F /  15.4 °C 49.6 °F /  9.8 °C 29.69in /  1005.3hPa Calm   2.0mph /  3.2km/h 69% 0.00in /  0mm
02:05 59.5 °F /  15.3 °C 49.3 °F /  9.6 °C 29.69in /  1005.3hPa Calm     69% 0.00in /  0mm
02:10 59.2 °F /  15.1 °C 49.4 °F /  9.7 °C 29.69in /  1005.3hPa Calm     70% 0.00in /  0mm
02:15 59.1 °F /  15.1 °C 49.3 °F /  9.6 °C 29.69in /  1005.3hPa Calm     70% 0.00in /  0mm
02:20 59.0 °F /  15 °C 49.6 °F /  9.8 °C 29.69in /  1005.3hPa Calm     71% 0.00in /  0mm
02:25 58.9 °F /  14.9 °C 49.5 °F /  9.7 °C 29.69in /  1005.3hPa Calm     71% 0.00in /  0mm
02:30 58.9 °F /  14.9 °C 49.5 °F /  9.7 °C 29.69in /  1005.3hPa Calm     71% 0.00in /  0mm
02:35 58.8 °F /  14.9 °C 49.4 °F /  9.7 °C 29.69in /  1005.3hPa Calm     71% 0.00in /  0mm
02:40 58.6 °F /  14.8 °C 49.6 °F /  9.8 °C 29.70in /  1005.6hPa Calm     72% 0.00in /  0mm
02:45 58.4 °F /  14.7 °C 49.4 °F /  9.7 °C 29.70in /  1005.6hPa Calm     72% 0.00in /  0mm
02:50 58.2 °F /  14.6 °C 49.2 °F /  9.6 °C 29.70in /  1005.6hPa Calm     72% 0.00in /  0mm
02:55 58.1 °F /  14.5 °C 49.5 °F /  9.7 °C 29.70in /  1005.6hPa Calm   2.0mph /  3.2km/h 73% 0.00in /  0mm
03:00 57.9 °F /  14.4 °C 49.3 °F /  9.6 °C 29.70in /  1005.6hPa Calm   2.0mph /  3.2km/h 73% 0.00in /  0mm
03:05 57.8 °F /  14.3 °C 49.6 °F /  9.8 °C 29.70in /  1005.6hPa Calm     74% 0.00in /  0mm
03:10 57.5 °F /  14.2 °C 49.3 °F /  9.6 °C 29.71in /  1006hPa Calm     74% 0.00in /  0mm
03:15 57.1 °F /  13.9 °C 49.2 °F /  9.6 °C 29.71in /  1006hPa Calm     75% 0.00in /  0mm
03:20 56.8 °F /  13.8 °C 49.3 °F /  9.6 °C 29.70in /  1005.6hPa Calm     76% 0.00in /  0mm
03:25 56.8 °F /  13.8 °C 49.3 °F /  9.6 °C 29.70in /  1005.6hPa Calm     76% 0.00in /  0mm
03:30 57.0 °F /  13.9 °C 49.5 °F /  9.7 °C 29.69in /  1005.3hPa Calm     76% 0.00in /  0mm
03:35 57.1 °F /  13.9 °C 49.6 °F /  9.8 °C 29.69in /  1005.3hPa Calm     76% 0.00in /  0mm
03:40 57.2 °F /  14 °C 49.7 °F /  9.8 °C 29.69in /  1005.3hPa Calm     76% 0.00in /  0mm
03:45 57.3 °F /  14.1 °C 49.4 °F /  9.7 °C 29.69in /  1005.3hPa Calm     75% 0.00in /  0mm
03:50 57.2 °F /  14 °C 49.7 °F /  9.8 °C 29.69in /  1005.3hPa Calm     76% 0.00in /  0mm
03:55 57.3 °F /  14.1 °C 49.8 °F /  9.9 °C 29.69in /  1005.3hPa Calm     76% 0.00in /  0mm
04:00 57.3 °F /  14.1 °C 49.8 °F /  9.9 °C 29.69in /  1005.3hPa Calm     76% 0.00in /  0mm
04:05 57.2 °F /  14 °C 49.7 °F /  9.8 °C 29.69in /  1005.3hPa Calm     76% 0.00in /  0mm
04:10 57.0 °F /  13.9 °C 49.5 °F /  9.7 °C 29.69in /  1005.3hPa Calm     76% 0.00in /  0mm
04:15 57.1 °F /  13.9 °C 49.6 °F /  9.8 °C 29.69in /  1005.3hPa Calm     76% 0.00in /  0mm
04:20 57.1 °F /  13.9 °C 50.0 °F /  10 °C 29.69in /  1005.3hPa Calm     77% 0.00in /  0mm
04:25 57.1 °F /  13.9 °C 50.0 °F /  10 °C 29.69in /  1005.3hPa Calm     77% 0.00in /  0mm
04:30 57.3 °F /  14.1 °C 49.8 °F /  9.9 °C 29.69in /  1005.3hPa Calm     76% 0.00in /  0mm
04:35 57.2 °F /  14 °C 49.7 °F /  9.8 °C 29.69in /  1005.3hPa Calm     76% 0.00in /  0mm
04:40 57.3 °F /  14.1 °C 49.8 °F /  9.9 °C 29.69in /  1005.3hPa Calm     76% 0.00in /  0mm
04:45 57.3 °F /  14.1 °C 49.8 °F /  9.9 °C 29.68in /  1005hPa Calm     76% 0.00in /  0mm
04:50 57.3 °F /  14.1 °C 49.8 °F /  9.9 °C 29.68in /  1005hPa Calm     76% 0.00in /  0mm
04:55 57.3 °F /  14.1 °C 49.8 °F /  9.9 °C 29.68in /  1005hPa Calm     76% 0.00in /  0mm
05:00 57.1 °F /  13.9 °C 50.0 °F /  10 °C 29.68in /  1005hPa Calm     77% 0.00in /  0mm
05:05 56.9 °F /  13.8 °C 49.8 °F /  9.9 °C 29.68in /  1005hPa Calm     77% 0.00in /  0mm
05:10 56.8 °F /  13.8 °C 49.7 °F /  9.8 °C 29.68in /  1005hPa Calm     77% 0.00in /  0mm
05:15 56.7 °F /  13.7 °C 49.6 °F /  9.8 °C 29.68in /  1005hPa Calm     77% 0.00in /  0mm
05:20 56.6 °F /  13.7 °C 49.8 °F /  9.9 °C 29.67in /  1004.6hPa Calm     78% 0.00in /  0mm
05:25 56.5 °F /  13.6 °C 49.7 °F /  9.8 °C 29.67in /  1004.6hPa Calm     78% 0.00in /  0mm
05:30 56.6 °F /  13.7 °C 49.8 °F /  9.9 °C 29.67in /  1004.6hPa Calm     78% 0.00in /  0mm
05:35 56.6 °F /  13.7 °C 49.5 °F /  9.7 °C 29.68in /  1005hPa Calm     77% 0.00in /  0mm
05:40 56.7 °F /  13.7 °C 49.6 °F /  9.8 °C 29.68in /  1005hPa Calm   1.0mph /  1.6km/h 77% 0.00in /  0mm
05:45 56.8 °F /  13.8 °C 49.7 °F /  9.8 °C 29.68in /  1005hPa East 1.0mph /  1.6km/h 3.0mph /  4.8km/h 77% 0.00in /  0mm
05:50 56.9 °F /  13.8 °C 49.8 °F /  9.9 °C 29.68in /  1005hPa Calm   2.0mph /  3.2km/h 77% 0.00in /  0mm
05:55 57.0 °F /  13.9 °C 49.9 °F /  9.9 °C 29.68in /  1005hPa East 1.0mph /  1.6km/h 2.0mph /  3.2km/h 77% 0.00in /  0mm
06:00 57.0 °F /  13.9 °C 49.5 °F /  9.7 °C 29.68in /  1005hPa East 1.0mph /  1.6km/h 3.0mph /  4.8km/h 76% 0.00in /  0mm
06:05 57.1 °F /  13.9 °C 49.6 °F /  9.8 °C 29.68in /  1005hPa Calm   3.0mph /  4.8km/h 76% 0.00in /  0mm
06:10 57.1 °F /  13.9 °C 50.0 °F /  10 °C 29.68in /  1005hPa Calm   2.0mph /  3.2km/h 77% 0.00in /  0mm
06:15 57.1 °F /  13.9 °C 50.0 °F /  10 °C 29.68in /  1005hPa Calm   2.0mph /  3.2km/h 77% 0.00in /  0mm
06:20 57.1 °F /  13.9 °C 50.0 °F /  10 °C 29.68in /  1005hPa Calm     77% 0.00in /  0mm
06:25 57.1 °F /  13.9 °C 50.0 °F /  10 °C 29.68in /  1005hPa Calm     77% 0.00in /  0mm
06:30 57.2 °F /  14 °C 49.7 °F /  9.8 °C 29.68in /  1005hPa Calm   3.0mph /  4.8km/h 76% 0.00in /  0mm
06:35 57.3 °F /  14.1 °C 50.1 °F /  10.1 °C 29.68in /  1005hPa Calm   3.0mph /  4.8km/h 77% 0.00in /  0mm
06:40 57.4 °F /  14.1 °C 49.9 °F /  9.9 °C 29.68in /  1005hPa Calm     76% 0.00in /  0mm
06:45 57.5 °F /  14.2 °C 50.0 °F /  10 °C 29.68in /  1005hPa Calm     76% 0.00in /  0mm
06:50 57.6 °F /  14.2 °C 50.1 °F /  10.1 °C 29.68in /  1005hPa Calm     76% 0.00in /  0mm
06:55 57.8 °F /  14.3 °C 50.3 °F /  10.2 °C 29.68in /  1005hPa Calm     76% 0.00in /  0mm
07:00 58.0 °F /  14.4 °C 50.5 °F /  10.3 °C 29.68in /  1005hPa Calm     76% 0.00in /  0mm
07:05 58.0 °F /  14.4 °C 50.5 °F /  10.3 °C 29.68in /  1005hPa Calm     76% 0.00in /  0mm
07:10 58.1 °F /  14.5 °C 50.2 °F /  10.1 °C 29.68in /  1005hPa Calm     75% 0.00in /  0mm
07:15 58.4 °F /  14.7 °C 50.5 °F /  10.3 °C 29.67in /  1004.6hPa Calm     75% 0.00in /  0mm
07:20 58.6 °F /  14.8 °C 50.3 °F /  10.2 °C 29.67in /  1004.6hPa East 2.0mph /  3.2km/h 3.0mph /  4.8km/h 74% 0.00in /  0mm
07:25 58.9 °F /  14.9 °C 50.6 °F /  10.3 °C 29.68in /  1005hPa East 1.0mph /  1.6km/h 3.0mph /  4.8km/h 74% 0.00in /  0mm
07:30 59.2 °F /  15.1 °C 50.5 °F /  10.3 °C 29.67in /  1004.6hPa Calm   5.0mph /  8km/h 73% 0.00in /  0mm
07:35 59.6 °F /  15.3 °C 50.6 °F /  10.3 °C 29.67in /  1004.6hPa Calm   5.0mph /  8km/h 72% 0.00in /  0mm
07:40 59.9 °F /  15.5 °C 50.5 °F /  10.3 °C 29.67in /  1004.6hPa Calm   3.0mph /  4.8km/h 71% 0.00in /  0mm
07:45 60.2 °F /  15.7 °C 50.4 °F /  10.2 °C 29.68in /  1005hPa Calm     70% 0.00in /  0mm
07:50 60.4 °F /  15.8 °C 50.2 °F /  10.1 °C 29.68in /  1005hPa Calm   2.0mph /  3.2km/h 69% 0.00in /  0mm
07:55 60.3 °F /  15.7 °C 50.1 °F /  10.1 °C 29.68in /  1005hPa SSE 1.0mph /  1.6km/h 4.0mph /  6.4km/h 69% 0.00in /  0mm
08:00 60.2 °F /  15.7 °C 49.6 °F /  9.8 °C 29.69in /  1005.3hPa SSE 1.0mph /  1.6km/h 4.0mph /  6.4km/h 68% 0.00in /  0mm
08:05 60.4 °F /  15.8 °C 49.8 °F /  9.9 °C 29.69in /  1005.3hPa SSE 1.0mph /  1.6km/h 3.0mph /  4.8km/h 68% 0.00in /  0mm
08:10 60.8 °F /  16 °C 50.6 °F /  10.3 °C 29.69in /  1005.3hPa Calm     69% 0.00in /  0mm
08:15 61.0 °F /  16.1 °C 50.8 °F /  10.4 °C 29.68in /  1005hPa Calm   2.0mph /  3.2km/h 69% 0.00in /  0mm
08:20 61.0 °F /  16.1 °C 50.4 °F /  10.2 °C 29.68in /  1005hPa Calm   6.0mph /  9.7km/h 68% 0.00in /  0mm
08:25 61.3 °F /  16.3 °C 50.2 °F /  10.1 °C 29.67in /  1004.6hPa East 3.0mph /  4.8km/h 8.0mph /  12.9km/h 67% 0.00in /  0mm
08:30 61.6 °F /  16.4 °C 50.1 °F /  10.1 °C 29.68in /  1005hPa ESE 2.0mph /  3.2km/h 7.0mph /  11.3km/h 66% 0.00in /  0mm
08:35 61.8 °F /  16.6 °C 50.3 °F /  10.2 °C 29.68in /  1005hPa ESE 3.0mph /  4.8km/h 7.0mph /  11.3km/h 66% 0.00in /  0mm
08:40 62.1 °F /  16.7 °C 50.6 °F /  10.3 °C 29.68in /  1005hPa Calm   6.0mph /  9.7km/h 66% 0.00in /  0mm
08:45 62.3 °F /  16.8 °C 50.4 °F /  10.2 °C 29.68in /  1005hPa Calm   6.0mph /  9.7km/h 65% 0.00in /  0mm
08:50 62.9 °F /  17.2 °C 51.4 °F /  10.8 °C 29.68in /  1005hPa ESE 2.0mph /  3.2km/h 6.0mph /  9.7km/h 66% 0.00in /  0mm
08:55 63.6 °F /  17.6 °C 50.8 °F /  10.4 °C 29.68in /  1005hPa ESE 2.0mph /  3.2km/h 7.0mph /  11.3km/h 63% 0.00in /  0mm
09:00 64.1 °F /  17.8 °C 50.8 °F /  10.4 °C 29.68in /  1005hPa ESE 3.0mph /  4.8km/h 11.0mph /  17.7km/h 62% 0.00in /  0mm
09:05 64.8 °F /  18.2 °C 51.9 °F /  11.1 °C 29.68in /  1005hPa SE 3.0mph /  4.8km/h 11.0mph /  17.7km/h 63% 0.00in /  0mm
09:10 65.2 °F /  18.4 °C 51.4 °F /  10.8 °C 29.68in /  1005hPa SE 3.0mph /  4.8km/h 8.0mph /  12.9km/h 61% 0.00in /  0mm
09:15 65.5 °F /  18.6 °C 53.0 °F /  11.7 °C 29.68in /  1005hPa SE 3.0mph /  4.8km/h 8.0mph /  12.9km/h 64% 0.00in /  0mm
09:20 66.1 °F /  18.9 °C 52.3 °F /  11.3 °C 29.68in /  1005hPa SE 4.0mph /  6.4km/h 10.0mph /  16.1km/h 61% 0.00in /  0mm
09:25 66.9 °F /  19.4 °C 53.0 °F /  11.7 °C 29.67in /  1004.6hPa East 5.0mph /  8km/h 5.0mph /  8km/h 61% 0.00in /  0mm
09:30 67.4 °F /  19.7 °C 53.0 °F /  11.7 °C 29.67in /  1004.6hPa ESE 4.0mph /  6.4km/h 8.0mph /  12.9km/h 60% 0.00in /  0mm
09:35 67.7 °F /  19.8 °C 53.3 °F /  11.8 °C 29.67in /  1004.6hPa ENE 2.0mph /  3.2km/h 9.0mph /  14.5km/h 60% 0.00in /  0mm
09:40 67.9 °F /  19.9 °C 51.6 °F /  10.9 °C 29.68in /  1005hPa SE 4.0mph /  6.4km/h 7.0mph /  11.3km/h 56% 0.00in /  0mm
09:45 67.6 °F /  19.8 °C 50.9 °F /  10.5 °C 29.67in /  1004.6hPa SE 3.0mph /  4.8km/h 9.0mph /  14.5km/h 55% 0.00in /  0mm
09:50 67.9 °F /  19.9 °C 50.6 °F /  10.3 °C 29.67in /  1004.6hPa SE 4.0mph /  6.4km/h 10.0mph /  16.1km/h 54% 0.00in /  0mm
09:55 69.0 °F /  20.6 °C 51.7 °F /  10.9 °C 29.67in /  1004.6hPa SE 4.0mph /  6.4km/h 10.0mph /  16.1km/h 54% 0.00in /  0mm
10:00 69.9 °F /  21.1 °C 50.9 °F /  10.5 °C 29.67in /  1004.6hPa ESE 4.0mph /  6.4km/h 9.0mph /  14.5km/h 51% 0.00in /  0mm
10:05 69.7 °F /  20.9 °C 50.8 °F /  10.4 °C 29.67in /  1004.6hPa East 6.0mph /  9.7km/h 8.0mph /  12.9km/h 51% 0.00in /  0mm
10:10 69.9 °F /  21.1 °C 48.2 °F /  9 °C 29.67in /  1004.6hPa SE 5.0mph /  8km/h 10.0mph /  16.1km/h 46% 0.00in /  0mm
10:15 69.6 °F /  20.9 °C 48.5 °F /  9.2 °C 29.67in /  1004.6hPa East 1.0mph /  1.6km/h 7.0mph /  11.3km/h 47% 0.00in /  0mm
10:20 69.5 °F /  20.8 °C 48.4 °F /  9.1 °C 29.67in /  1004.6hPa ESE 3.0mph /  4.8km/h 11.0mph /  17.7km/h 47% 0.00in /  0mm
10:25 69.6 °F /  20.9 °C 47.3 °F /  8.5 °C 29.67in /  1004.6hPa SE 3.0mph /  4.8km/h 11.0mph /  17.7km/h 45% 0.00in /  0mm
10:30 69.9 °F /  21.1 °C 47.6 °F /  8.7 °C 29.66in /  1004.3hPa SE 3.0mph /  4.8km/h 8.0mph /  12.9km/h 45% 0.00in /  0mm
10:35 70.5 °F /  21.4 °C 46.3 °F /  7.9 °C 29.66in /  1004.3hPa ESE 3.0mph /  4.8km/h 10.0mph /  16.1km/h 42% 0.00in /  0mm
10:40 70.2 °F /  21.2 °C 46.6 °F /  8.1 °C 29.66in /  1004.3hPa SSE 2.0mph /  3.2km/h 7.0mph /  11.3km/h 43% 0.00in /  0mm
10:45 70.0 °F /  21.1 °C 45.2 °F /  7.3 °C 29.66in /  1004.3hPa SSW 4.0mph /  6.4km/h 9.0mph /  14.5km/h 41% 0.00in /  0mm
10:50 69.6 °F /  20.9 °C 42.2 °F /  5.7 °C 29.66in /  1004.3hPa SE 5.0mph /  8km/h 11.0mph /  17.7km/h 37% 0.00in /  0mm
10:55 69.9 °F /  21.1 °C 43.1 °F /  6.2 °C 29.66in /  1004.3hPa ESE 2.0mph /  3.2km/h 12.0mph /  19.3km/h 38% 0.00in /  0mm
11:00 70.6 °F /  21.4 °C 46.4 °F /  8 °C 29.66in /  1004.3hPa ESE 4.0mph /  6.4km/h 10.0mph /  16.1km/h 42% 0.00in /  0mm
11:05 71.4 °F /  21.9 °C 45.8 °F /  7.7 °C 29.66in /  1004.3hPa SE 3.0mph /  4.8km/h 9.0mph /  14.5km/h 40% 0.00in /  0mm
11:10 71.5 °F /  21.9 °C 45.9 °F /  7.7 °C 29.66in /  1004.3hPa SE 7.0mph /  11.3km/h 8.0mph /  12.9km/h 40% 0.00in /  0mm
11:15 71.7 °F /  22.1 °C 45.4 °F /  7.4 °C 29.66in /  1004.3hPa SE 5.0mph /  8km/h 7.0mph /  11.3km/h 39% 0.00in /  0mm
11:20 71.0 °F /  21.7 °C 44.1 °F /  6.7 °C 29.66in /  1004.3hPa SSE 4.0mph /  6.4km/h 9.0mph /  14.5km/h 38% 0.00in /  0mm
11:25 71.2 °F /  21.8 °C 45.6 °F /  7.6 °C 29.66in /  1004.3hPa SSE 4.0mph /  6.4km/h 9.0mph /  14.5km/h 40% 0.00in /  0mm
11:30 71.5 °F /  21.9 °C 43.8 °F /  6.6 °C 29.66in /  1004.3hPa South 5.0mph /  8km/h 11.0mph /  17.7km/h 37% 0.00in /  0mm
11:35 71.3 °F /  21.8 °C 42.2 °F /  5.7 °C 29.65in /  1003.9hPa SSE 5.0mph /  8km/h 11.0mph /  17.7km/h 35% 0.00in /  0mm
11:40 71.4 °F /  21.9 °C 43.8 °F /  6.6 °C 29.65in /  1003.9hPa SE 5.0mph /  8km/h 10.0mph /  16.1km/h 37% 0.00in /  0mm
11:45 71.5 °F /  21.9 °C 44.5 °F /  6.9 °C 29.65in /  1003.9hPa SSE 4.0mph /  6.4km/h 9.0mph /  14.5km/h 38% 0.00in /  0mm
11:50 71.4 °F /  21.9 °C 43.8 °F /  6.6 °C 29.65in /  1003.9hPa SSW 3.0mph /  4.8km/h 8.0mph /  12.9km/h 37% 0.00in /  0mm
11:55 71.9 °F /  22.2 °C 44.2 °F /  6.8 °C 29.65in /  1003.9hPa South 3.0mph /  4.8km/h 9.0mph /  14.5km/h 37% 0.00in /  0mm
12:00 72.8 °F /  22.7 °C 44.3 °F /  6.8 °C 29.64in /  1003.6hPa SSE 5.0mph /  8km/h 9.0mph /  14.5km/h 36% 0.00in /  0mm
12:05 73.1 °F /  22.8 °C 42.3 °F /  5.7 °C 29.64in /  1003.6hPa South 1.0mph /  1.6km/h 7.0mph /  11.3km/h 33% 0.00in /  0mm
12:10 73.8 °F /  23.2 °C 42.9 °F /  6.1 °C 29.64in /  1003.6hPa ENE 1.0mph /  1.6km/h 9.0mph /  14.5km/h 33% 0.00in /  0mm
12:15 74.0 °F /  23.3 °C 43.1 °F /  6.2 °C 29.64in /  1003.6hPa ESE 4.0mph /  6.4km/h 10.0mph /  16.1km/h 33% 0.00in /  0mm
12:25 74.3 °F /  23.5 °C 43.3 °F /  6.3 °C 29.63in /  1003.3hPa SE 4.0mph /  6.4km/h 8.0mph /  12.9km/h 33% 0.00in /  0mm
12:30 73.8 °F /  23.2 °C 43.7 °F /  6.5 °C 29.63in /  1003.3hPa SE 3.0mph /  4.8km/h 9.0mph /  14.5km/h 34% 0.00in /  0mm
12:35 74.6 °F /  23.7 °C 47.3 °F /  8.5 °C 29.63in /  1003.3hPa ESE 4.0mph /  6.4km/h 9.0mph /  14.5km/h 38% 0.00in /  0mm
12:40 74.9 °F /  23.8 °C 45.4 °F /  7.4 °C 29.62in /  1002.9hPa ENE 7.0mph /  11.3km/h 10.0mph /  16.1km/h 35% 0.00in /  0mm
12:45 74.6 °F /  23.7 °C 46.6 °F /  8.1 °C 29.62in /  1002.9hPa East 4.0mph /  6.4km/h 10.0mph /  16.1km/h 37% 0.00in /  0mm
12:50 74.3 °F /  23.5 °C 42.5 °F /  5.8 °C 29.62in /  1002.9hPa ESE 4.0mph /  6.4km/h 10.0mph /  16.1km/h 32% 0.00in /  0mm
12:55 74.2 °F /  23.4 °C 46.2 °F /  7.9 °C 29.62in /  1002.9hPa NE 4.0mph /  6.4km/h 10.0mph /  16.1km/h 37% 0.00in /  0mm
13:00 74.8 °F /  23.8 °C 47.5 °F /  8.6 °C 29.62in /  1002.9hPa East 2.0mph /  3.2km/h 8.0mph /  12.9km/h 38% 0.00in /  0mm
13:05 74.4 °F /  23.6 °C 44.2 °F /  6.8 °C 29.61in /  1002.6hPa ESE 3.0mph /  4.8km/h 10.0mph /  16.1km/h 34% 0.00in /  0mm
13:10 73.9 °F /  23.3 °C 43.0 °F /  6.1 °C 29.61in /  1002.6hPa SE 2.0mph /  3.2km/h 10.0mph /  16.1km/h 33% 0.00in /  0mm
13:15 74.8 °F /  23.8 °C 44.5 °F /  6.9 °C 29.61in /  1002.6hPa East 4.0mph /  6.4km/h 10.0mph /  16.1km/h 34% 0.00in /  0mm
13:20 75.3 °F /  24.1 °C 45.7 °F /  7.6 °C 29.61in /  1002.6hPa ESE 3.0mph /  4.8km/h 9.0mph /  14.5km/h 35% 0.00in /  0mm
13:25 75.7 °F /  24.3 °C 46.8 °F /  8.2 °C 29.61in /  1002.6hPa ESE 3.0mph /  4.8km/h 10.0mph /  16.1km/h 36% 0.00in /  0mm
13:30 76.1 °F /  24.5 °C 44.9 °F /  7.2 °C 29.61in /  1002.6hPa SE 4.0mph /  6.4km/h 13.0mph /  20.9km/h 33% 0.00in /  0mm
13:35 76.1 °F /  24.5 °C 45.7 °F /  7.6 °C 29.61in /  1002.6hPa ESE 8.0mph /  12.9km/h 10.0mph /  16.1km/h 34% 0.00in /  0mm
13:40 76.4 °F /  24.7 °C 45.2 °F /  7.3 °C 29.61in /  1002.6hPa East 9.0mph /  14.5km/h 10.0mph /  16.1km/h 33% 0.00in /  0mm
13:45 76.5 °F /  24.7 °C 47.6 °F /  8.7 °C 29.61in /  1002.6hPa ESE 5.0mph /  8km/h 10.0mph /  16.1km/h 36% 0.00in /  0mm
13:50 76.7 °F /  24.8 °C 47.0 °F /  8.3 °C 29.61in /  1002.6hPa ESE 4.0mph /  6.4km/h 10.0mph /  16.1km/h 35% 0.00in /  0mm
13:55 76.3 °F /  24.6 °C 45.1 °F /  7.3 °C 29.61in /  1002.6hPa ESE 4.0mph /  6.4km/h 10.0mph /  16.1km/h 33% 0.00in /  0mm
14:00 76.0 °F /  24.4 °C 45.6 °F /  7.6 °C 29.61in /  1002.6hPa East 5.0mph /  8km/h 10.0mph /  16.1km/h 34% 0.00in /  0mm
14:05 75.8 °F /  24.3 °C 44.6 °F /  7 °C 29.60in /  1002.3hPa SE 5.0mph /  8km/h 8.0mph /  12.9km/h 33% 0.00in /  0mm
14:10 76.3 °F /  24.6 °C 45.9 °F /  7.7 °C 29.60in /  1002.3hPa SSE 2.0mph /  3.2km/h 9.0mph /  14.5km/h 34% 0.00in /  0mm
14:15 77.5 °F /  25.3 °C 43.6 °F /  6.4 °C 29.60in /  1002.3hPa ESE 4.0mph /  6.4km/h 13.0mph /  20.9km/h 30% 0.00in /  0mm
14:20 77.1 °F /  25.1 °C 43.3 °F /  6.3 °C 29.60in /  1002.3hPa SE 6.0mph /  9.7km/h 14.0mph /  22.5km/h 30% 0.00in /  0mm
14:25 76.0 °F /  24.4 °C 44.0 °F /  6.7 °C 29.60in /  1002.3hPa SSW 8.0mph /  12.9km/h 11.0mph /  17.7km/h 32% 0.00in /  0mm
14:30 75.5 °F /  24.2 °C 45.2 °F /  7.3 °C 29.60in /  1002.3hPa East 2.0mph /  3.2km/h 11.0mph /  17.7km/h 34% 0.00in /  0mm
14:35 75.6 °F /  24.2 °C 44.5 °F /  6.9 °C 29.60in /  1002.3hPa East 10.0mph /  16.1km/h 11.0mph /  17.7km/h 33% 0.00in /  0mm
14:40 75.7 °F /  24.3 °C 46.1 °F /  7.8 °C 29.60in /  1002.3hPa SSE 4.0mph /  6.4km/h 10.0mph /  16.1km/h 35% 0.00in /  0mm
14:45 76.0 °F /  24.4 °C 46.4 °F /  8 °C 29.60in /  1002.3hPa East 5.0mph /  8km/h 14.0mph /  22.5km/h 35% 0.00in /  0mm
14:50 77.0 °F /  25 °C 46.5 °F /  8.1 °C 29.60in /  1002.3hPa ESE 4.0mph /  6.4km/h 14.0mph /  22.5km/h 34% 0.00in /  0mm
14:55 77.0 °F /  25 °C 45.7 °F /  7.6 °C 29.60in /  1002.3hPa SE 4.0mph /  6.4km/h 12.0mph /  19.3km/h 33% 0.00in /  0mm
15:00 77.9 °F /  25.5 °C 47.3 °F /  8.5 °C 29.59in /  1001.9hPa SE 4.0mph /  6.4km/h 12.0mph /  19.3km/h 34% 0.00in /  0mm
15:05 78.1 °F /  25.6 °C 47.4 °F /  8.6 °C 29.60in /  1002.3hPa SE 4.0mph /  6.4km/h 11.0mph /  17.7km/h 34% 0.00in /  0mm
15:10 77.5 °F /  25.3 °C 46.9 °F /  8.3 °C 29.60in /  1002.3hPa SE 4.0mph /  6.4km/h 11.0mph /  17.7km/h 34% 0.00in /  0mm
15:15 77.5 °F /  25.3 °C 46.1 °F /  7.8 °C 29.60in /  1002.3hPa ESE 4.0mph /  6.4km/h 10.0mph /  16.1km/h 33% 0.00in /  0mm
15:20 77.8 °F /  25.4 °C 47.2 °F /  8.4 °C 29.59in /  1001.9hPa ENE 7.0mph /  11.3km/h 12.0mph /  19.3km/h 34% 0.00in /  0mm
15:25 77.5 °F /  25.3 °C 46.1 °F /  7.8 °C 29.59in /  1001.9hPa ESE 5.0mph /  8km/h 9.0mph /  14.5km/h 33% 0.00in /  0mm
15:30 76.9 °F /  24.9 °C 46.4 °F /  8 °C 29.59in /  1001.9hPa SE 8.0mph /  12.9km/h 9.0mph /  14.5km/h 34% 0.00in /  0mm
15:35 77.3 °F /  25.2 °C 47.5 °F /  8.6 °C 29.59in /  1001.9hPa East 2.0mph /  3.2km/h 10.0mph /  16.1km/h 35% 0.00in /  0mm
15:40 78.2 °F /  25.7 °C 46.7 °F /  8.2 °C 29.59in /  1001.9hPa ESE 2.0mph /  3.2km/h 8.0mph /  12.9km/h 33% 0.00in /  0mm
15:45 77.8 °F /  25.4 °C 46.4 °F /  8 °C 29.59in /  1001.9hPa ESE 4.0mph /  6.4km/h 9.0mph /  14.5km/h 33% 0.00in /  0mm
15:50 77.2 °F /  25.1 °C 46.7 °F /  8.2 °C 29.59in /  1001.9hPa SE 3.0mph /  4.8km/h 9.0mph /  14.5km/h 34% 0.00in /  0mm
15:55 76.9 °F /  24.9 °C 46.4 °F /  8 °C 29.59in /  1001.9hPa SSE 4.0mph /  6.4km/h 9.0mph /  14.5km/h 34% 0.00in /  0mm
16:00 77.2 °F /  25.1 °C 45.9 °F /  7.7 °C 29.59in /  1001.9hPa SE 3.0mph /  4.8km/h 9.0mph /  14.5km/h 33% 0.00in /  0mm
16:05 77.3 °F /  25.2 °C 44.3 °F /  6.8 °C 29.59in /  1001.9hPa East 3.0mph /  4.8km/h 9.0mph /  14.5km/h 31% 0.00in /  0mm
16:10 77.2 °F /  25.1 °C 43.4 °F /  6.3 °C 29.58in /  1001.6hPa East 6.0mph /  9.7km/h 10.0mph /  16.1km/h 30% 0.00in /  0mm
16:15 77.9 °F /  25.5 °C 46.5 °F /  8.1 °C 29.58in /  1001.6hPa SE 4.0mph /  6.4km/h 10.0mph /  16.1km/h 33% 0.00in /  0mm
16:20 78.4 °F /  25.8 °C 44.4 °F /  6.9 °C 29.59in /  1001.9hPa SSE 4.0mph /  6.4km/h 13.0mph /  20.9km/h 30% 0.00in /  0mm
16:25 77.9 °F /  25.5 °C 47.3 °F /  8.5 °C 29.58in /  1001.6hPa SSE 5.0mph /  8km/h 13.0mph /  20.9km/h 34% 0.00in /  0mm
16:30 78.2 °F /  25.7 °C 45.9 °F /  7.7 °C 29.58in /  1001.6hPa ESE 3.0mph /  4.8km/h 12.0mph /  19.3km/h 32% 0.00in /  0mm
16:35 78.6 °F /  25.9 °C 44.6 °F /  7 °C 29.58in /  1001.6hPa East 6.0mph /  9.7km/h 11.0mph /  17.7km/h 30% 0.00in /  0mm
16:40 79.2 °F /  26.2 °C 47.6 °F /  8.7 °C 29.58in /  1001.6hPa East 9.0mph /  14.5km/h 9.0mph /  14.5km/h 33% 0.00in /  0mm
16:45 78.8 °F /  26 °C 45.6 °F /  7.6 °C 29.58in /  1001.6hPa SE 5.0mph /  8km/h 9.0mph /  14.5km/h 31% 0.00in /  0mm
16:50 78.4 °F /  25.8 °C 45.3 °F /  7.4 °C 29.58in /  1001.6hPa SE 5.0mph /  8km/h 10.0mph /  16.1km/h 31% 0.00in /  0mm
16:55 78.0 °F /  25.6 °C 44.9 °F /  7.2 °C 29.58in /  1001.6hPa SSE 5.0mph /  8km/h 10.0mph /  16.1km/h 31% 0.00in /  0mm
17:00 77.9 °F /  25.5 °C 44.0 °F /  6.7 °C 29.58in /  1001.6hPa SSE 1.0mph /  1.6km/h 10.0mph /  16.1km/h 30% 0.00in /  0mm
17:05 77.5 °F /  25.3 °C 46.1 °F /  7.8 °C 29.58in /  1001.6hPa SE 5.0mph /  8km/h 10.0mph /  16.1km/h 33% 0.00in /  0mm
17:10 76.9 °F /  24.9 °C 45.6 °F /  7.6 °C 29.58in /  1001.6hPa SSE 5.0mph /  8km/h 14.0mph /  22.5km/h 33% 0.00in /  0mm
17:15 76.5 °F /  24.7 °C 46.0 °F /  7.8 °C 29.58in /  1001.6hPa SE 2.0mph /  3.2km/h 14.0mph /  22.5km/h 34% 0.00in /  0mm
17:20 76.4 °F /  24.7 °C 45.9 °F /  7.7 °C 29.58in /  1001.6hPa SSE 5.0mph /  8km/h 14.0mph /  22.5km/h 34% 0.00in /  0mm
17:25 76.4 °F /  24.7 °C 45.9 °F /  7.7 °C 29.58in /  1001.6hPa SSE 5.0mph /  8km/h 11.0mph /  17.7km/h 34% 0.00in /  0mm
17:30 76.4 °F /  24.7 °C 46.7 °F /  8.2 °C 29.58in /  1001.6hPa SE 4.0mph /  6.4km/h 11.0mph /  17.7km/h 35% 0.00in /  0mm
17:35 76.4 °F /  24.7 °C 47.5 °F /  8.6 °C 29.58in /  1001.6hPa SE 3.0mph /  4.8km/h 6.0mph /  9.7km/h 36% 0.00in /  0mm
17:40 76.2 °F /  24.6 °C 47.3 °F /  8.5 °C 29.58in /  1001.6hPa ESE 11.0mph /  17.7km/h 11.0mph /  17.7km/h 36% 0.00in /  0mm
17:45 75.9 °F /  24.4 °C 47.0 °F /  8.3 °C 29.59in /  1001.9hPa SSE 4.0mph /  6.4km/h 12.0mph /  19.3km/h 36% 0.00in /  0mm
17:50 75.6 °F /  24.2 °C 45.2 °F /  7.3 °C 29.58in /  1001.6hPa SSE 9.0mph /  14.5km/h 11.0mph /  17.7km/h 34% 0.00in /  0mm
17:55 75.6 °F /  24.2 °C 46.8 °F /  8.2 °C 29.58in /  1001.6hPa SE 4.0mph /  6.4km/h 9.0mph /  14.5km/h 36% 0.00in /  0mm
18:05 75.5 °F /  24.2 °C 47.4 °F /  8.6 °C 29.58in /  1001.6hPa SE 1.0mph /  1.6km/h 9.0mph /  14.5km/h 37% 0.00in /  0mm
18:10 75.4 °F /  24.1 °C 47.3 °F /  8.5 °C 29.58in /  1001.6hPa SE 1.0mph /  1.6km/h 13.0mph /  20.9km/h 37% 0.00in /  0mm
18:15 75.3 °F /  24.1 °C 47.2 °F /  8.4 °C 29.58in /  1001.6hPa SSE 5.0mph /  8km/h 13.0mph /  20.9km/h 37% 0.00in /  0mm
18:20 75.2 °F /  24 °C 47.1 °F /  8.4 °C 29.58in /  1001.6hPa SE 5.0mph /  8km/h 11.0mph /  17.7km/h 37% 0.00in /  0mm
18:25 75.0 °F /  23.9 °C 47.7 °F /  8.7 °C 29.58in /  1001.6hPa SE 4.0mph /  6.4km/h 9.0mph /  14.5km/h 38% 0.00in /  0mm
18:30 74.8 °F /  23.8 °C 48.2 °F /  9 °C 29.58in /  1001.6hPa ESE 2.0mph /  3.2km/h 8.0mph /  12.9km/h 39% 0.00in /  0mm
18:35 74.6 °F /  23.7 °C 48.7 °F /  9.3 °C 29.58in /  1001.6hPa Calm   8.0mph /  12.9km/h 40% 0.00in /  0mm
18:40 74.5 °F /  23.6 °C 48.6 °F /  9.2 °C 29.57in /  1001.2hPa SE 1.0mph /  1.6km/h 7.0mph /  11.3km/h 40% 0.00in /  0mm
18:45 74.3 °F /  23.5 °C 48.4 °F /  9.1 °C 29.57in /  1001.2hPa SSE 3.0mph /  4.8km/h 7.0mph /  11.3km/h 40% 0.00in /  0mm
18:50 74.3 °F /  23.5 °C 48.4 °F /  9.1 °C 29.58in /  1001.6hPa SE 4.0mph /  6.4km/h 7.0mph /  11.3km/h 40% 0.00in /  0mm
18:55 74.1 °F /  23.4 °C 48.2 °F /  9 °C 29.57in /  1001.2hPa SE 1.0mph /  1.6km/h 7.0mph /  11.3km/h 40% 0.00in /  0mm
19:00 74.0 °F /  23.3 °C 48.1 °F /  8.9 °C 29.57in /  1001.2hPa ESE 4.0mph /  6.4km/h 10.0mph /  16.1km/h 40% 0.00in /  0mm
19:05 73.9 °F /  23.3 °C 48.1 °F /  8.9 °C 29.57in /  1001.2hPa ESE 4.0mph /  6.4km/h 7.0mph /  11.3km/h 40% 0.00in /  0mm
19:10 73.8 °F /  23.2 °C 47.3 °F /  8.5 °C 29.57in /  1001.2hPa SE 2.0mph /  3.2km/h 10.0mph /  16.1km/h 39% 0.00in /  0mm
19:15 73.7 °F /  23.2 °C 47.2 °F /  8.4 °C 29.57in /  1001.2hPa SE 4.0mph /  6.4km/h 10.0mph /  16.1km/h 39% 0.00in /  0mm
19:20 73.7 °F /  23.2 °C 47.2 °F /  8.4 °C 29.57in /  1001.2hPa SE 4.0mph /  6.4km/h 11.0mph /  17.7km/h 39% 0.00in /  0mm
19:25 73.5 °F /  23.1 °C 47.7 °F /  8.7 °C 29.58in /  1001.6hPa SSE 6.0mph /  9.7km/h 8.0mph /  12.9km/h 40% 0.00in /  0mm
19:30 73.3 °F /  22.9 °C 47.5 °F /  8.6 °C 29.58in /  1001.6hPa SSE 2.0mph /  3.2km/h 15.0mph /  24.1km/h 40% 0.00in /  0mm
19:35 73.1 °F /  22.8 °C 47.3 °F /  8.5 °C 29.58in /  1001.6hPa SSE 3.0mph /  4.8km/h 8.0mph /  12.9km/h 40% 0.00in /  0mm
19:40 73.0 °F /  22.8 °C 47.2 °F /  8.4 °C 29.58in /  1001.6hPa SE 4.0mph /  6.4km/h 8.0mph /  12.9km/h 40% 0.00in /  0mm
19:45 73.0 °F /  22.8 °C 47.2 °F /  8.4 °C 29.58in /  1001.6hPa SE 4.0mph /  6.4km/h 11.0mph /  17.7km/h 40% 0.00in /  0mm
19:50 72.9 °F /  22.7 °C 47.8 °F /  8.8 °C 29.58in /  1001.6hPa SE 5.0mph /  8km/h 16.0mph /  25.7km/h 41% 0.00in /  0mm
19:55 72.9 °F /  22.7 °C 47.8 °F /  8.8 °C 29.59in /  1001.9hPa SE 6.0mph /  9.7km/h 16.0mph /  25.7km/h 41% 0.00in /  0mm
20:00 72.7 °F /  22.6 °C 48.3 °F /  9.1 °C 29.59in /  1001.9hPa SSE 6.0mph /  9.7km/h 13.0mph /  20.9km/h 42% 0.00in /  0mm
20:05 72.5 °F /  22.5 °C 48.1 °F /  8.9 °C 29.59in /  1001.9hPa SE 5.0mph /  8km/h 13.0mph /  20.9km/h 42% 0.00in /  0mm
20:10 72.4 °F /  22.4 °C 48.0 °F /  8.9 °C 29.59in /  1001.9hPa SE 4.0mph /  6.4km/h 9.0mph /  14.5km/h 42% 0.00in /  0mm
20:15 72.2 °F /  22.3 °C 49.1 °F /  9.5 °C 29.58in /  1001.6hPa SE 3.0mph /  4.8km/h 7.0mph /  11.3km/h 44% 0.00in /  0mm
20:20 71.9 °F /  22.2 °C 48.8 °F /  9.3 °C 29.58in /  1001.6hPa East 2.0mph /  3.2km/h 9.0mph /  14.5km/h 44% 0.00in /  0mm
20:25 71.8 °F /  22.1 °C 48.7 °F /  9.3 °C 29.58in /  1001.6hPa SE 2.0mph /  3.2km/h 10.0mph /  16.1km/h 44% 0.00in /  0mm
20:30 71.7 °F /  22.1 °C 48.6 °F /  9.2 °C 29.58in /  1001.6hPa SSE 5.0mph /  8km/h 9.0mph /  14.5km/h 44% 0.00in /  0mm
20:35 71.6 °F /  22 °C 48.5 °F /  9.2 °C 29.58in /  1001.6hPa ESE 1.0mph /  1.6km/h 8.0mph /  12.9km/h 44% 0.00in /  0mm
20:40 71.4 °F /  21.9 °C 48.9 °F /  9.4 °C 29.58in /  1001.6hPa SE 3.0mph /  4.8km/h 8.0mph /  12.9km/h 45% 0.00in /  0mm
20:45 71.3 °F /  21.8 °C 48.9 °F /  9.4 °C 29.59in /  1001.9hPa SE 3.0mph /  4.8km/h 8.0mph /  12.9km/h 45% 0.00in /  0mm
20:50 71.3 °F /  21.8 °C 48.9 °F /  9.4 °C 29.59in /  1001.9hPa SSE 4.0mph /  6.4km/h 10.0mph /  16.1km/h 45% 0.00in /  0mm
20:55 71.2 °F /  21.8 °C 49.9 °F /  9.9 °C 29.60in /  1002.3hPa SSE 3.0mph /  4.8km/h 7.0mph /  11.3km/h 47% 0.00in /  0mm
21:00 70.8 °F /  21.6 °C 50.1 °F /  10.1 °C 29.60in /  1002.3hPa SSE 4.0mph /  6.4km/h 9.0mph /  14.5km/h 48% 0.00in /  0mm
21:05 70.6 °F /  21.4 °C 49.4 °F /  9.7 °C 29.60in /  1002.3hPa South 9.0mph /  14.5km/h 13.0mph /  20.9km/h 47% 0.00in /  0mm
21:10 70.6 °F /  21.4 °C 49.4 °F /  9.7 °C 29.60in /  1002.3hPa SSE 5.0mph /  8km/h 13.0mph /  20.9km/h 47% 0.00in /  0mm
21:15 70.4 °F /  21.3 °C 49.2 °F /  9.6 °C 29.59in /  1001.9hPa SSE 5.0mph /  8km/h 12.0mph /  19.3km/h 47% 0.00in /  0mm
21:20 70.4 °F /  21.3 °C 49.2 °F /  9.6 °C 29.60in /  1002.3hPa SE 4.0mph /  6.4km/h 12.0mph /  19.3km/h 47% 0.00in /  0mm
21:25 70.4 °F /  21.3 °C 49.2 °F /  9.6 °C 29.60in /  1002.3hPa SE 4.0mph /  6.4km/h 12.0mph /  19.3km/h 47% 0.00in /  0mm
21:30 70.3 °F /  21.3 °C 49.1 °F /  9.5 °C 29.59in /  1001.9hPa SE 4.0mph /  6.4km/h 12.0mph /  19.3km/h 47% 0.00in /  0mm
21:35 70.3 °F /  21.3 °C 49.1 °F /  9.5 °C 29.60in /  1002.3hPa SE 4.0mph /  6.4km/h 10.0mph /  16.1km/h 47% 0.00in /  0mm
21:45 70.1 °F /  21.2 °C 48.9 °F /  9.4 °C 29.59in /  1001.9hPa SE 4.0mph /  6.4km/h 6.0mph /  9.7km/h 47% 0.00in /  0mm
21:50 70.1 °F /  21.2 °C 48.9 °F /  9.4 °C 29.60in /  1002.3hPa ESE 1.0mph /  1.6km/h 7.0mph /  11.3km/h 47% 0.00in /  0mm
21:55 69.9 °F /  21.1 °C 48.7 °F /  9.3 °C 29.60in /  1002.3hPa East 6.0mph /  9.7km/h 7.0mph /  11.3km/h 47% 0.00in /  0mm
22:00 69.9 °F /  21.1 °C 49.3 °F /  9.6 °C 29.59in /  1001.9hPa ESE 4.0mph /  6.4km/h 12.0mph /  19.3km/h 48% 0.00in /  0mm
22:05 69.9 °F /  21.1 °C 49.3 °F /  9.6 °C 29.59in /  1001.9hPa East 1.0mph /  1.6km/h 8.0mph /  12.9km/h 48% 0.00in /  0mm
22:10 69.8 °F /  21 °C 49.2 °F /  9.6 °C 29.60in /  1002.3hPa ESE 4.0mph /  6.4km/h 9.0mph /  14.5km/h 48% 0.00in /  0mm
22:15 69.7 °F /  20.9 °C 49.1 °F /  9.5 °C 29.60in /  1002.3hPa ESE 3.0mph /  4.8km/h 9.0mph /  14.5km/h 48% 0.00in /  0mm
22:20 69.7 °F /  20.9 °C 49.7 °F /  9.8 °C 29.60in /  1002.3hPa SE 4.0mph /  6.4km/h 10.0mph /  16.1km/h 49% 0.00in /  0mm
22:25 69.6 °F /  20.9 °C 49.6 °F /  9.8 °C 29.60in /  1002.3hPa SE 5.0mph /  8km/h 13.0mph /  20.9km/h 49% 0.00in /  0mm
22:30 69.6 °F /  20.9 °C 49.0 °F /  9.4 °C 29.60in /  1002.3hPa SE 5.0mph /  8km/h 13.0mph /  20.9km/h 48% 0.00in /  0mm
22:35 69.5 °F /  20.8 °C 49.5 °F /  9.7 °C 29.60in /  1002.3hPa ESE 7.0mph /  11.3km/h 8.0mph /  12.9km/h 49% 0.00in /  0mm
22:40 69.4 °F /  20.8 °C 49.4 °F /  9.7 °C 29.60in /  1002.3hPa SE 5.0mph /  8km/h 13.0mph /  20.9km/h 49% 0.00in /  0mm
22:45 69.3 °F /  20.7 °C 49.9 °F /  9.9 °C 29.60in /  1002.3hPa SE 5.0mph /  8km/h 13.0mph /  20.9km/h 50% 0.00in /  0mm
22:50 69.1 °F /  20.6 °C 49.7 °F /  9.8 °C 29.60in /  1002.3hPa SE 5.0mph /  8km/h 11.0mph /  17.7km/h 50% 0.00in /  0mm
22:55 69.1 °F /  20.6 °C 49.7 °F /  9.8 °C 29.61in /  1002.6hPa SSW 1.0mph /  1.6km/h 11.0mph /  17.7km/h 50% 0.00in /  0mm
23:00 68.9 °F /  20.5 °C 50.0 °F /  10 °C 29.60in /  1002.3hPa SE 6.0mph /  9.7km/h 11.0mph /  17.7km/h 51% 0.00in /  0mm
23:05 68.8 °F /  20.4 °C 49.9 °F /  9.9 °C 29.60in /  1002.3hPa SE 6.0mph /  9.7km/h 13.0mph /  20.9km/h 51% 0.00in /  0mm
23:10 68.6 °F /  20.3 °C 50.3 °F /  10.2 °C 29.60in /  1002.3hPa SE 6.0mph /  9.7km/h 13.0mph /  20.9km/h 52% 0.00in /  0mm
23:15 68.3 °F /  20.2 °C 50.5 °F /  10.3 °C 29.59in /  1001.9hPa SE 5.0mph /  8km/h 13.0mph /  20.9km/h 53% 0.00in /  0mm
23:20 68.1 °F /  20.1 °C 50.3 °F /  10.2 °C 29.60in /  1002.3hPa SE 6.0mph /  9.7km/h 16.0mph /  25.7km/h 53% 0.00in /  0mm
23:25 68.0 °F /  20 °C 50.7 °F /  10.4 °C 29.60in /  1002.3hPa SE 5.0mph /  8km/h 16.0mph /  25.7km/h 54% 0.00in /  0mm
23:35 67.1 °F /  19.5 °C 51.8 °F /  11 °C 29.59in /  1001.9hPa East 1.0mph /  1.6km/h 9.0mph /  14.5km/h 58% 0.00in /  0mm
23:40 66.5 °F /  19.2 °C 52.2 °F /  11.2 °C 29.60in /  1002.3hPa SE 4.0mph /  6.4km/h 9.0mph /  14.5km/h 60% 0.00in /  0mm
23:45 66.4 °F /  19.1 °C 51.6 °F /  10.9 °C 29.60in /  1002.3hPa SE 5.0mph /  8km/h 14.0mph /  22.5km/h 59% 0.00in /  0mm
23:50 66.4 °F /  19.1 °C 52.1 °F /  11.2 °C 29.60in /  1002.3hPa SE 5.0mph /  8km/h 14.0mph /  22.5km/h 60% 0.00in /  0mm
23:55 66.0 °F /  18.9 °C 52.2 °F /  11.2 °C 29.60in /  1002.3hPa SE 1.0mph /  1.6km/h 8.0mph /  12.9km/h 61% 0.00in /  0mm
Buffalo, New York, USA
Compliments of Weather Underground - 2.5 mb